createdAt,value
2022-10-02T00:00:34.241Z,13.40
2022-10-02T00:03:06.261Z,17.30
2022-10-02T00:05:36.331Z,14.57
2022-10-02T00:08:04.856Z,15.87
2022-10-02T00:10:34.120Z,13.93
2022-10-02T00:13:03.111Z,15.17
2022-10-02T00:15:32.113Z,12.73
2022-10-02T00:18:02.676Z,14.83
2022-10-02T00:20:35.236Z,13.47
2022-10-02T00:23:04.015Z,16.47
2022-10-02T00:25:34.457Z,15.17
2022-10-02T00:28:20.912Z,21.47
2022-10-02T00:31:04.080Z,12.57
2022-10-02T00:33:34.434Z,17.50
2022-10-02T00:36:09.531Z,17.20
2022-10-02T00:38:44.388Z,13.87
2022-10-02T00:41:32.800Z,15.57
2022-10-02T00:44:17.325Z,11.93
2022-10-02T00:46:48.230Z,18.43
2022-10-02T00:49:36.066Z,14.13
2022-10-02T00:52:25.435Z,14.53
2022-10-02T00:55:06.286Z,16.53
2022-10-02T00:57:42.016Z,18.27
2022-10-02T01:00:10.840Z,15.27
2022-10-02T01:03:04.082Z,14.10
2022-10-02T01:05:31.684Z,16.80
2022-10-02T01:08:00.805Z,16.83
2022-10-02T01:10:28.425Z,17.43
2022-10-02T01:12:56.462Z,21.90
2022-10-02T01:15:25.025Z,17.70
2022-10-02T01:17:52.869Z,13.60
2022-10-02T01:20:23.590Z,14.10
2022-10-02T01:22:54.540Z,24.80
2022-10-02T01:25:23.664Z,13.30
2022-10-02T01:27:51.539Z,16.97
2022-10-02T01:30:20.133Z,20.13
2022-10-02T01:32:50.153Z,17.53
2022-10-02T01:35:18.049Z,13.37
2022-10-02T01:37:45.589Z,18.30
2022-10-02T01:40:26.159Z,15.50
2022-10-02T01:42:53.770Z,16.97
2022-10-02T01:45:23.367Z,16.60
2022-10-02T01:47:52.674Z,15.83
2022-10-02T01:50:23.605Z,17.50
2022-10-02T01:52:54.404Z,22.87
2022-10-02T01:55:28.251Z,12.93
2022-10-02T01:58:01.018Z,18.07
2022-10-02T02:00:29.173Z,15.53
2022-10-02T02:02:59.260Z,16.47
2022-10-02T02:05:36.643Z,17.20
2022-10-02T02:08:08.403Z,15.87
2022-10-02T02:10:42.956Z,21.20
2022-10-02T02:13:12.600Z,21.47
2022-10-02T02:15:41.541Z,16.50
2022-10-02T02:18:12.127Z,16.03
2022-10-02T02:20:43.757Z,24.07
2022-10-02T02:23:19.082Z,19.73
2022-10-02T02:25:50.444Z,24.33
2022-10-02T02:28:19.610Z,25.10
2022-10-02T02:30:47.643Z,19.73
2022-10-02T02:33:17.972Z,22.17
2022-10-02T02:35:47.283Z,16.67
2022-10-02T02:38:17.528Z,21.33
2022-10-02T02:40:45.254Z,22.93
2022-10-02T02:43:16.154Z,17.73
2022-10-02T02:45:45.794Z,20.90
2022-10-02T02:48:15.773Z,23.67
2022-10-02T02:50:45.183Z,20.47
2022-10-02T02:53:13.972Z,23.27
2022-10-02T02:55:45.161Z,22.40
2022-10-02T02:58:16.145Z,18.47
2022-10-02T03:00:43.762Z,17.40
2022-10-02T03:03:11.619Z,26.57
2022-10-02T03:05:40.467Z,22.90
2022-10-02T03:08:19.210Z,17.70
2022-10-02T03:10:51.649Z,23.57
2022-10-02T03:13:29.307Z,23.03
2022-10-02T03:16:04.975Z,22.63
2022-10-02T03:18:51.053Z,22.43
2022-10-02T03:21:20.989Z,18.00
2022-10-02T03:23:58.735Z,27.37
2022-10-02T03:26:31.153Z,18.70
2022-10-02T03:29:00.656Z,27.07
2022-10-02T03:31:29.494Z,20.00
2022-10-02T03:33:57.721Z,18.90
2022-10-02T03:36:25.467Z,26.37
2022-10-02T03:39:12.511Z,21.80
2022-10-02T03:41:40.968Z,27.13
2022-10-02T03:44:10.044Z,17.63
2022-10-02T03:46:37.867Z,21.47
2022-10-02T03:49:05.889Z,25.40
2022-10-02T03:51:33.453Z,27.50
2022-10-02T03:54:01.154Z,16.43
2022-10-02T03:56:34.537Z,18.40
2022-10-02T03:59:02.694Z,22.77
2022-10-02T04:01:33.384Z,19.33
2022-10-02T04:04:03.094Z,22.40
2022-10-02T04:06:38.170Z,14.93
2022-10-02T04:09:07.593Z,18.93
2022-10-02T04:11:37.295Z,14.17
2022-10-02T04:14:07.046Z,15.23
2022-10-02T04:16:37.995Z,10.57
2022-10-02T04:19:08.457Z,7.77
2022-10-02T04:21:37.754Z,9.87
2022-10-02T04:24:10.522Z,9.60
2022-10-02T04:26:40.150Z,10.07
2022-10-02T04:29:12.921Z,7.83
2022-10-02T04:31:42.300Z,7.83
2022-10-02T04:34:11.413Z,6.50
2022-10-02T04:36:43.283Z,7.60
2022-10-02T04:39:49.887Z,7.77
2022-10-02T04:42:23.757Z,7.47
2022-10-02T04:44:59.249Z,9.40
2022-10-02T04:47:43.124Z,7.60
2022-10-02T04:50:18.734Z,9.23
2022-10-02T04:52:57.863Z,8.67
2022-10-02T04:55:40.510Z,6.57
2022-10-02T04:58:21.462Z,8.90
2022-10-02T05:00:50.469Z,5.73
2022-10-02T05:03:27.648Z,7.40
2022-10-02T05:06:01.015Z,4.73
2022-10-02T05:08:39.389Z,3.53
2022-10-02T05:11:13.870Z,8.60
2022-10-02T05:13:59.599Z,4.33
2022-10-02T05:19:04.573Z,3.97
2022-10-02T05:21:43.613Z,4.30
2022-10-02T05:24:23.198Z,3.87
2022-10-02T05:27:13.846Z,3.27
2022-10-02T05:29:58.974Z,1.60
2022-10-02T05:32:42.973Z,1.70
2022-10-02T05:35:20.547Z,5.63
2022-10-02T05:37:54.001Z,6.90
2022-10-02T05:40:25.100Z,2.20
2022-10-02T05:42:57.023Z,4.90
2022-10-02T05:45:27.598Z,4.63
2022-10-02T05:47:56.649Z,2.13
2022-10-02T05:50:27.345Z,5.03
2022-10-02T05:52:56.162Z,5.40
2022-10-02T05:55:25.687Z,7.03
2022-10-02T05:57:53.965Z,3.90
2022-10-02T06:00:27.223Z,9.47
2022-10-02T06:02:57.932Z,9.97
2022-10-02T06:05:28.736Z,12.77
2022-10-02T06:07:58.382Z,12.47
2022-10-02T06:10:28.060Z,11.77
2022-10-02T06:12:58.456Z,12.10
2022-10-02T06:15:27.802Z,10.60
2022-10-02T06:17:56.789Z,14.10
2022-10-02T06:20:26.868Z,10.93
2022-10-02T06:22:56.508Z,12.10
2022-10-02T06:25:26.436Z,13.37
2022-10-02T06:27:56.493Z,11.77
2022-10-02T06:30:24.094Z,9.63
2022-10-02T06:32:55.222Z,9.27
2022-10-02T06:35:33.240Z,12.93
2022-10-02T06:38:07.089Z,11.33
2022-10-02T06:40:46.659Z,10.53
2022-10-02T06:43:24.943Z,11.27
2022-10-02T06:45:58.602Z,6.07
2022-10-02T06:48:26.736Z,8.40
2022-10-02T06:50:59.044Z,12.00
2022-10-02T06:53:37.404Z,10.60
2022-10-02T06:56:11.691Z,11.23
2022-10-02T06:58:47.462Z,16.80
2022-10-02T07:01:20.838Z,12.03
2022-10-02T07:04:05.098Z,10.40
2022-10-02T07:06:40.208Z,14.00
2022-10-02T07:09:21.722Z,10.93
2022-10-02T07:11:52.940Z,12.27
2022-10-02T07:14:47.746Z,14.17
2022-10-02T07:17:31.139Z,17.37
2022-10-02T07:20:11.014Z,9.67
2022-10-02T07:22:49.265Z,10.13
2022-10-02T07:25:35.442Z,11.73
2022-10-02T07:28:07.233Z,12.33
2022-10-02T07:30:38.566Z,9.90
2022-10-02T07:33:09.208Z,12.27
2022-10-02T07:35:41.970Z,7.93
2022-10-02T07:38:19.902Z,9.57
2022-10-02T07:40:51.835Z,6.87
2022-10-02T07:43:33.492Z,9.07
2022-10-02T07:46:03.921Z,9.13
2022-10-02T07:48:38.791Z,9.60
2022-10-02T07:51:30.847Z,7.63
2022-10-02T07:54:03.948Z,11.37
2022-10-02T07:56:31.765Z,10.13
2022-10-02T07:59:01.060Z,7.90
2022-10-02T08:01:30.298Z,9.70
2022-10-02T08:03:59.753Z,11.23
2022-10-02T08:06:27.837Z,8.70
2022-10-02T08:08:57.676Z,9.77
2022-10-02T08:11:30.310Z,12.07
2022-10-02T08:13:59.192Z,10.37
2022-10-02T08:16:32.355Z,10.20
2022-10-02T08:19:01.415Z,9.03
2022-10-02T08:21:29.101Z,9.50
2022-10-02T08:23:59.272Z,7.27
2022-10-02T08:26:35.194Z,12.23
2022-10-02T08:29:06.478Z,8.93
2022-10-02T08:31:34.222Z,5.50
2022-10-02T08:34:02.298Z,8.60
2022-10-02T08:36:58.278Z,7.87
2022-10-02T08:39:46.138Z,10.40
2022-10-02T08:42:32.111Z,12.30
2022-10-02T08:45:29.074Z,7.37
2022-10-02T08:48:23.551Z,10.27
2022-10-02T08:51:09.363Z,11.10
2022-10-02T08:54:18.502Z,10.70
2022-10-02T08:57:01.549Z,11.00
2022-10-02T08:59:52.604Z,11.80
2022-10-02T09:03:07.904Z,12.37
2022-10-02T09:06:07.770Z,9.10
2022-10-02T09:08:59.935Z,9.13
2022-10-02T09:11:50.277Z,10.30
2022-10-02T09:14:30.951Z,12.70
2022-10-02T09:17:16.671Z,11.37
2022-10-02T09:19:50.684Z,12.30
2022-10-02T09:22:35.057Z,13.40
2022-10-02T09:25:14.136Z,10.40
2022-10-02T09:28:08.601Z,11.70
2022-10-02T09:30:47.808Z,12.83
2022-10-02T09:33:47.264Z,10.73
2022-10-02T09:36:52.023Z,9.70
2022-10-02T09:39:51.614Z,11.03
2022-10-02T09:42:46.697Z,16.17
2022-10-02T09:45:41.015Z,13.00
2022-10-02T09:48:51.283Z,13.47
2022-10-02T09:51:53.129Z,11.43
2022-10-02T09:54:57.966Z,9.80
2022-10-02T09:58:06.204Z,10.93
2022-10-02T10:00:49.753Z,12.97
2022-10-02T10:03:36.356Z,8.40
2022-10-02T10:06:29.466Z,6.60
2022-10-02T10:09:15.407Z,8.90
2022-10-02T10:12:26.617Z,5.80
2022-10-02T10:15:18.530Z,4.47
2022-10-02T10:18:21.152Z,4.67
2022-10-02T10:21:46.829Z,4.70
2022-10-02T10:24:33.950Z,4.20
2022-10-02T10:27:14.519Z,3.00
2022-10-02T10:30:22.269Z,4.80
2022-10-02T10:33:25.283Z,5.07
2022-10-02T10:36:33.556Z,4.90
2022-10-02T10:39:08.475Z,4.90
2022-10-02T10:41:49.489Z,5.10
2022-10-02T10:44:42.001Z,3.23
2022-10-02T10:47:34.659Z,4.30
2022-10-02T10:50:47.923Z,5.80
2022-10-02T10:53:39.097Z,3.10
2022-10-02T10:56:29.178Z,5.00
2022-10-02T10:59:25.265Z,6.10
2022-10-02T11:02:02.580Z,5.23
2022-10-02T11:04:54.439Z,6.60
2022-10-02T11:07:35.070Z,4.55
2022-10-02T11:10:12.074Z,6.85
2022-10-02T11:13:03.075Z,7.70
2022-10-02T11:15:59.198Z,5.55
2022-10-02T11:18:34.540Z,8.45
2022-10-02T11:21:32.637Z,4.65
2022-10-02T11:24:29.223Z,6.72
2022-10-02T11:27:05.754Z,4.82
2022-10-02T11:30:10.268Z,10.02
2022-10-02T11:32:54.312Z,6.60
2022-10-02T11:35:29.334Z,6.25
2022-10-02T11:38:36.963Z,4.28
2022-10-02T11:41:20.653Z,6.10
2022-10-02T11:44:09.567Z,6.68
2022-10-02T11:47:01.374Z,5.25
2022-10-02T11:49:37.297Z,4.40
2022-10-02T11:52:27.285Z,8.18
2022-10-02T11:55:00.755Z,7.13
2022-10-02T11:57:33.027Z,8.25
2022-10-02T12:00:14.758Z,9.32
2022-10-02T12:02:47.697Z,4.68
2022-10-02T12:05:25.468Z,5.88
2022-10-02T12:07:58.303Z,7.95
2022-10-02T12:10:46.906Z,3.08
2022-10-02T12:13:24.576Z,5.32
2022-10-02T12:15:56.238Z,5.70
2022-10-02T12:18:38.754Z,7.13
2022-10-02T12:21:31.700Z,8.77
2022-10-02T12:24:20.364Z,6.78
2022-10-02T12:27:00.205Z,5.20
2022-10-02T12:29:35.761Z,6.93
2022-10-02T12:32:08.129Z,3.72
2022-10-02T12:34:42.330Z,5.95
2022-10-02T12:37:12.199Z,6.20
2022-10-02T12:39:45.030Z,5.80
2022-10-02T12:42:26.682Z,7.82
2022-10-02T12:47:40.171Z,6.55
2022-10-02T12:50:24.273Z,7.28
2022-10-02T12:53:30.716Z,9.43
2022-10-02T12:56:34.258Z,7.22
2022-10-02T12:59:05.107Z,4.90
2022-10-02T13:02:42.889Z,4.78
2022-10-02T13:05:47.432Z,6.40
2022-10-02T13:08:37.866Z,6.30
2022-10-02T13:11:10.304Z,4.97
2022-10-02T13:13:55.255Z,7.47
2022-10-02T13:16:26.551Z,6.38
2022-10-02T13:19:10.323Z,6.25
2022-10-02T13:21:47.288Z,7.75
2022-10-02T13:24:28.458Z,3.85
2022-10-02T13:26:58.921Z,5.53
2022-10-02T13:29:40.487Z,5.80
2022-10-02T13:32:22.634Z,4.32
2022-10-02T13:34:58.641Z,5.53
2022-10-02T13:37:33.095Z,6.85
2022-10-02T13:40:21.393Z,3.88
2022-10-02T13:43:04.292Z,5.18
2022-10-02T13:45:34.341Z,3.80
2022-10-02T13:48:05.694Z,6.95
2022-10-02T13:50:45.093Z,4.38
2022-10-02T13:53:45.434Z,4.43
2022-10-02T13:56:21.575Z,5.68
2022-10-02T13:59:05.221Z,5.38
2022-10-02T14:01:36.943Z,6.65
2022-10-02T14:04:14.158Z,5.57
2022-10-02T14:06:43.697Z,6.82
2022-10-02T14:09:18.920Z,6.55
2022-10-02T14:11:56.316Z,5.30
2022-10-02T14:14:30.038Z,7.18
2022-10-02T14:17:03.128Z,8.20
2022-10-02T14:19:56.409Z,7.35
2022-10-02T14:22:33.762Z,11.43
2022-10-02T14:25:23.142Z,6.10
2022-10-02T14:28:23.035Z,7.88
2022-10-02T14:30:57.776Z,10.02
2022-10-02T14:33:30.896Z,8.48
2022-10-02T14:36:01.126Z,7.13
2022-10-02T14:38:35.347Z,8.60
2022-10-02T14:41:10.771Z,5.28
2022-10-02T14:43:47.157Z,5.93
2022-10-02T14:46:39.314Z,7.22
2022-10-02T14:49:30.403Z,6.68
2022-10-02T14:52:05.812Z,7.15
2022-10-02T14:54:41.832Z,10.02
2022-10-02T14:57:21.167Z,4.88
2022-10-02T15:00:13.648Z,8.77
2022-10-02T15:03:07.706Z,9.50
2022-10-02T15:05:41.850Z,8.32
2022-10-02T15:08:13.757Z,9.43
2022-10-02T15:10:42.371Z,9.98
2022-10-02T15:13:13.467Z,6.45
2022-10-02T15:15:42.323Z,5.82
2022-10-02T15:18:20.132Z,9.30
2022-10-02T15:20:59.329Z,6.45
2022-10-02T15:23:44.186Z,7.97
2022-10-02T15:26:34.033Z,5.88
2022-10-02T15:29:10.913Z,6.87
2022-10-02T15:31:41.201Z,6.07
2022-10-02T15:34:15.788Z,7.57
2022-10-02T15:36:50.129Z,7.23
2022-10-02T15:39:30.878Z,10.10
2022-10-02T15:42:04.828Z,6.60
2022-10-02T15:44:58.564Z,9.10
2022-10-02T15:47:42.872Z,12.10
2022-10-02T15:50:18.577Z,8.27
2022-10-02T15:52:51.135Z,6.90
2022-10-02T15:55:21.674Z,10.03
2022-10-02T15:58:14.041Z,8.30
2022-10-02T16:01:01.644Z,7.63
2022-10-02T16:03:32.822Z,8.80
2022-10-02T16:06:02.069Z,7.90
2022-10-02T16:08:45.153Z,10.07
2022-10-02T16:11:24.815Z,11.87
2022-10-02T16:13:54.239Z,9.07
2022-10-02T16:16:47.356Z,9.60
2022-10-02T16:19:19.108Z,9.57
2022-10-02T16:21:55.228Z,12.27
2022-10-02T16:24:39.437Z,11.23
2022-10-02T16:27:23.249Z,7.83
2022-10-02T16:30:02.355Z,12.67
2022-10-02T16:32:34.269Z,10.07
2022-10-02T16:35:17.622Z,15.43
2022-10-02T16:37:46.609Z,16.20
2022-10-02T16:40:26.793Z,7.47
2022-10-02T16:43:14.240Z,9.37
2022-10-02T16:45:54.243Z,12.30
2022-10-02T16:48:24.445Z,7.80
2022-10-02T16:51:11.535Z,13.33
2022-10-02T16:53:42.723Z,11.63
2022-10-02T16:56:12.301Z,14.47
2022-10-02T16:58:43.916Z,10.03
2022-10-02T17:01:23.694Z,13.43
2022-10-02T17:04:23.482Z,13.30
2022-10-02T17:06:53.466Z,13.63
2022-10-02T17:09:23.784Z,10.13
2022-10-02T17:11:53.320Z,14.07
2022-10-02T17:14:23.120Z,14.23
2022-10-02T17:16:55.660Z,14.03
2022-10-02T17:19:27.151Z,12.03
2022-10-02T17:21:56.385Z,15.13
2022-10-02T17:24:32.359Z,12.37
2022-10-02T17:27:08.679Z,33.20
2022-10-02T17:29:39.256Z,7.17
2022-10-02T17:32:09.321Z,9.57
2022-10-02T17:34:46.397Z,8.77
2022-10-02T17:37:44.755Z,10.43
2022-10-02T17:40:13.930Z,10.23
2022-10-02T17:45:29.017Z,11.53
2022-10-02T17:48:21.834Z,12.50
2022-10-02T17:51:31.020Z,7.80
2022-10-02T17:54:23.405Z,6.27
2022-10-02T17:57:17.794Z,11.57
2022-10-02T18:00:03.520Z,8.17
2022-10-02T18:03:05.266Z,6.03
2022-10-02T18:05:38.002Z,4.93
2022-10-02T18:08:18.054Z,9.63
2022-10-02T18:10:49.887Z,12.00
2022-10-02T18:13:23.553Z,11.13
2022-10-02T18:16:09.175Z,8.77
2022-10-02T18:18:39.907Z,7.80
2022-10-02T18:21:24.071Z,9.03
2022-10-02T18:24:02.747Z,12.77
2022-10-02T18:26:35.316Z,12.77
2022-10-02T18:29:26.844Z,13.10
2022-10-02T18:32:08.689Z,8.73
2022-10-02T18:34:45.695Z,7.63
2022-10-02T18:37:24.924Z,10.00
2022-10-02T18:40:04.831Z,6.77
2022-10-02T18:42:52.668Z,8.20
2022-10-02T18:45:29.397Z,4.87
2022-10-02T18:50:40.491Z,8.30
2022-10-02T18:53:21.672Z,7.90
2022-10-02T18:56:03.571Z,6.73
2022-10-02T18:58:52.601Z,7.77
2022-10-02T19:01:42.659Z,9.43
2022-10-02T19:04:22.995Z,8.17
2022-10-02T19:06:52.227Z,8.37
2022-10-02T19:09:23.101Z,9.23
2022-10-02T19:11:56.736Z,6.07
2022-10-02T19:14:30.049Z,9.20
2022-10-02T19:16:58.845Z,5.77
2022-10-02T19:19:27.827Z,8.40
2022-10-02T19:21:59.281Z,8.37
2022-10-02T19:24:28.328Z,12.10
2022-10-02T19:26:59.539Z,7.63
2022-10-02T19:29:30.491Z,9.17
2022-10-02T19:31:59.630Z,9.67
2022-10-02T19:34:28.784Z,9.87
2022-10-02T19:36:58.773Z,8.73
2022-10-02T19:39:30.513Z,11.50
2022-10-02T19:42:03.025Z,12.90
2022-10-02T19:44:32.846Z,9.23
2022-10-02T19:47:02.293Z,7.27
2022-10-02T19:49:32.204Z,8.40
2022-10-02T19:51:59.786Z,9.93
2022-10-02T19:54:28.486Z,11.20
2022-10-02T19:56:57.821Z,7.47
2022-10-02T19:59:28.703Z,7.57
2022-10-02T20:01:58.025Z,8.30
2022-10-02T20:04:26.949Z,13.40
2022-10-02T20:06:56.558Z,8.30
2022-10-02T20:09:27.277Z,9.73
2022-10-02T20:11:56.004Z,10.93
2022-10-02T20:14:25.105Z,8.27
2022-10-02T20:17:16.855Z,15.73
2022-10-02T20:19:46.759Z,10.23
2022-10-02T20:22:19.163Z,9.47
2022-10-02T20:24:50.588Z,11.30
2022-10-02T20:27:20.477Z,12.90
2022-10-02T20:29:50.335Z,11.57
2022-10-02T20:32:21.707Z,11.83
2022-10-02T20:34:53.410Z,11.77
2022-10-02T20:37:23.106Z,13.50
2022-10-02T20:39:55.191Z,11.23
2022-10-02T20:42:27.249Z,12.87
2022-10-02T20:44:54.974Z,10.63
2022-10-02T20:47:50.279Z,9.33
2022-10-02T20:50:40.409Z,13.40
2022-10-02T20:53:31.016Z,12.57
2022-10-02T20:56:00.715Z,9.63
2022-10-02T20:58:36.029Z,10.23
2022-10-02T21:01:13.401Z,10.17
2022-10-02T21:03:55.576Z,12.83
2022-10-02T21:06:39.199Z,14.10
2022-10-02T21:09:47.777Z,14.37
2022-10-02T21:12:33.460Z,13.03
2022-10-02T21:15:41.292Z,13.10
2022-10-02T21:18:50.733Z,10.97
2022-10-02T21:21:40.370Z,7.93
2022-10-02T21:24:21.053Z,9.30
2022-10-02T21:27:08.154Z,8.77
2022-10-02T21:29:53.941Z,12.87
2022-10-02T21:32:31.807Z,13.67
2022-10-02T21:35:16.827Z,10.37
2022-10-02T21:37:58.420Z,7.80
2022-10-02T21:40:56.122Z,14.63
2022-10-02T21:44:05.753Z,12.57
2022-10-02T21:46:54.683Z,10.23
2022-10-02T21:49:42.839Z,10.53
2022-10-02T21:52:58.675Z,11.77
2022-10-02T21:55:41.294Z,13.60
2022-10-02T21:58:39.593Z,8.20
2022-10-02T22:01:27.836Z,11.57
2022-10-02T22:04:19.865Z,16.63
2022-10-02T22:06:54.505Z,13.73
2022-10-02T22:09:32.889Z,16.67
2022-10-02T22:12:11.587Z,11.97
2022-10-02T22:14:40.486Z,11.57
2022-10-02T22:17:13.969Z,12.20
2022-10-02T22:19:51.712Z,16.77
2022-10-02T22:22:25.432Z,13.63
2022-10-02T22:25:02.594Z,16.17
2022-10-02T22:27:47.480Z,16.83
2022-10-02T22:30:23.877Z,15.37
2022-10-02T22:33:13.058Z,13.90
2022-10-02T22:35:52.706Z,13.93
2022-10-02T22:38:22.569Z,12.40
2022-10-02T22:40:52.361Z,17.30
2022-10-02T22:43:25.592Z,15.57
2022-10-02T22:45:55.684Z,13.37
2022-10-02T22:48:27.904Z,11.97
2022-10-02T22:50:56.734Z,16.63
2022-10-02T22:53:26.924Z,15.80
2022-10-02T22:55:55.350Z,15.00
2022-10-02T22:58:30.268Z,11.90
2022-10-02T23:01:01.939Z,14.20
2022-10-02T23:03:37.464Z,16.30
2022-10-02T23:06:06.049Z,14.77
2022-10-02T23:08:35.990Z,15.17
2022-10-02T23:11:08.318Z,12.77
2022-10-02T23:13:38.626Z,10.03
2022-10-02T23:16:07.619Z,16.50
2022-10-02T23:18:39.557Z,9.50
2022-10-02T23:21:23.951Z,11.80
2022-10-02T23:23:55.842Z,13.97
2022-10-02T23:26:29.033Z,12.87
2022-10-02T23:29:06.571Z,14.00
2022-10-02T23:31:35.451Z,16.33
2022-10-02T23:34:12.545Z,12.23
2022-10-02T23:36:45.909Z,17.90
2022-10-02T23:39:15.677Z,12.60
2022-10-02T23:41:47.830Z,14.87
2022-10-02T23:44:23.200Z,13.67
2022-10-02T23:47:00.505Z,17.20
2022-10-02T23:49:32.756Z,11.03
2022-10-02T23:52:06.607Z,12.77
2022-10-02T23:54:44.446Z,13.83
2022-10-02T23:57:36.051Z,21.67
